Historical Weather Data

Kanab, UT VWS

Date ET
(Inches)
Rain
(Inches)
Temp °F
Humidity
Avg
Wind MPH
Avg
Solar Wm2
Avg
High Ave Low
01/01/2019 12:00 am 0.035 0.00 28.0 19.2 12.0 51 2.4 132
01/02/2019 12:00 am 0.039 0.00 32.0 19.7 10.0 42 2.4 136
01/03/2019 12:00 am 0.043 0.00 39.0 25.2 14.0 45 2.0 135
01/04/2019 12:00 am 0.058 0.00 47.0 31.4 19.3 52 4.1 130
01/05/2019 12:00 am 0.045 0.07 44.0 32.3 22.0 55 3.6 85
01/06/2019 12:00 am 0.016 0.26 37.0 32.0 27.0 85 3.9 33
01/07/2019 12:00 am 0.027 0.00 41.0 33.9 28.0 83 3.3 61
01/08/2019 12:00 am 0.035 0.00 43.0 33.8 27.0 82 5.0 91
01/09/2019 12:00 am 0.044 0.00 44.0 35.3 29.0 75 4.6 115
01/10/2019 12:00 am 0.042 0.00 46.0 35.2 28.0 75 2.5 122
01/11/2019 12:00 am 0.039 0.00 44.0 33.5 26.0 72 3.2 104
01/12/2019 12:00 am 0.048 0.00 43.0 33.0 25.0 65 3.3 125
01/13/2019 12:00 am 0.044 0.00 42.0 33.6 25.0 71 3.2 118
01/14/2019 12:00 am 0.035 0.04 43.0 32.7 27.0 73 4.7 71
01/15/2019 12:00 am 0.008 0.61 38.0 34.3 31.0 89 2.3 8
01/16/2019 12:00 am 0.022 0.05 43.0 36.2 30.0 91 3.1 42
01/17/2019 12:00 am 0.021 0.30 46.0 39.8 33.0 83 3.6 11
01/18/2019 12:00 am 0.058 0.04 45.0 37.5 28.0 71 3.3 137
01/19/2019 12:00 am 0.048 0.00 46.0 34.6 25.7 65 1.4 135
01/20/2019 12:00 am 0.047 0.00 48.0 37.0 29.0 65 2.2 113
01/21/2019 12:00 am 0.034 0.06 41.0 34.4 29.0 69 5.7 87
01/22/2019 12:00 am 0.052 0.00 37.0 28.2 22.0 60 3.3 152
01/23/2019 12:00 am 0.053 0.00 42.0 30.2 21.0 52 1.7 154
01/24/2019 12:00 am 0.057 0.00 46.0 33.3 26.0 60 3.1 153
01/25/2019 12:00 am 0.060 0.00 47.0 33.1 23.0 55 2.4 155
01/26/2019 12:00 am 0.065 0.00 48.0 35.4 25.7 54 3.0 150
01/27/2019 12:00 am 0.061 0.00 51.0 37.8 28.0 57 2.1 143
01/28/2019 12:00 am 0.081 0.00 53.0 39.0 31.0 52 3.9 145
01/29/2019 12:00 am 0.059 0.00 51.0 38.0 27.0 58 3.1 119
01/30/2019 12:00 am 0.068 0.00 49.0 37.4 29.0 53 3.1 161
01/31/2019 12:00 am 0.062 0.00 52.0 39.5 29.0 57 2.0 148